sensor_id;sensor_type;location;lat;lon;timestamp;pressure;altitude;pressure_sealevel;temperature;humidity
71915;BME280;60387;49.994;14.660;2023-03-21T00:01:18;97788.97;;;14.13;47.61
71915;BME280;60387;49.994;14.660;2023-03-21T00:03:52;97793.00;;;14.07;47.78
71915;BME280;60387;49.994;14.660;2023-03-21T00:06:25;97786.28;;;14.04;48.32
71915;BME280;60387;49.994;14.660;2023-03-21T00:08:58;97793.47;;;14.00;47.64
71915;BME280;60387;49.994;14.660;2023-03-21T00:11:32;97785.63;;;13.99;47.60
71915;BME280;60387;49.994;14.660;2023-03-21T00:14:05;97778.44;;;13.94;47.77
71915;BME280;60387;49.994;14.660;2023-03-21T00:16:38;97768.50;;;13.90;47.82
71915;BME280;60387;49.994;14.660;2023-03-21T00:19:12;97765.63;;;13.86;48.20
71915;BME280;60387;49.994;14.660;2023-03-21T00:21:45;97761.59;;;13.75;48.15
71915;BME280;60387;49.994;14.660;2023-03-21T00:24:18;97765.94;;;13.76;49.08
71915;BME280;60387;49.994;14.660;2023-03-21T00:26:51;97762.56;;;13.71;48.54
71915;BME280;60387;49.994;14.660;2023-03-21T00:29:25;97767.38;;;13.65;48.78
71915;BME280;60387;49.994;14.660;2023-03-21T00:31:58;97769.44;;;13.60;48.85
71915;BME280;60387;49.994;14.660;2023-03-21T00:34:31;97768.16;;;13.57;48.37
71915;BME280;60387;49.994;14.660;2023-03-21T00:37:05;97767.81;;;13.50;49.09
71915;BME280;60387;49.994;14.660;2023-03-21T00:39:38;97751.66;;;13.45;48.42
71915;BME280;60387;49.994;14.660;2023-03-21T00:42:11;97756.63;;;13.43;48.64
71915;BME280;60387;49.994;14.660;2023-03-21T00:44:45;97758.84;;;13.41;49.09
71915;BME280;60387;49.994;14.660;2023-03-21T00:47:18;97755.66;;;13.39;48.88
71915;BME280;60387;49.994;14.660;2023-03-21T00:49:51;97747.31;;;13.36;48.74
71915;BME280;60387;49.994;14.660;2023-03-21T00:52:24;97747.50;;;13.31;48.79
71915;BME280;60387;49.994;14.660;2023-03-21T00:54:58;97743.47;;;13.28;48.91
71915;BME280;60387;49.994;14.660;2023-03-21T00:57:31;97744.13;;;13.25;49.11
71915;BME280;60387;49.994;14.660;2023-03-21T01:00:06;97739.94;;;13.19;49.91
71915;BME280;60387;49.994;14.660;2023-03-21T01:02:40;97737.38;;;13.14;49.73
71915;BME280;60387;49.994;14.660;2023-03-21T01:05:13;97735.28;;;13.11;50.29
71915;BME280;60387;49.994;14.660;2023-03-21T01:07:47;97735.94;;;13.08;49.50
71915;BME280;60387;49.994;14.660;2023-03-21T01:10:20;97735.75;;;13.05;49.26
71915;BME280;60387;49.994;14.660;2023-03-21T01:12:53;97734.47;;;13.02;49.15
71915;BME280;60387;49.994;14.660;2023-03-21T01:15:27;97733.47;;;12.98;49.19
71915;BME280;60387;49.994;14.660;2023-03-21T01:18:00;97737.50;;;13.01;48.69
71915;BME280;60387;49.994;14.660;2023-03-21T01:20:34;97742.94;;;13.01;48.86
71915;BME280;60387;49.994;14.660;2023-03-21T01:23:09;97724.38;;;12.94;48.99
71915;BME280;60387;49.994;14.660;2023-03-21T01:25:42;97733.47;;;12.98;49.22
71915;BME280;60387;49.994;14.660;2023-03-21T01:28:16;97733.81;;;12.97;50.63
71915;BME280;60387;49.994;14.660;2023-03-21T01:30:50;97736.84;;;12.95;49.62
71915;BME280;60387;49.994;14.660;2023-03-21T01:33:23;97735.50;;;12.93;49.67
71915;BME280;60387;49.994;14.660;2023-03-21T01:35:57;97727.69;;;12.91;49.52
71915;BME280;60387;49.994;14.660;2023-03-21T01:38:30;97736.34;;;12.93;49.25
71915;BME280;60387;49.994;14.660;2023-03-21T01:41:04;97736.94;;;12.90;49.31
71915;BME280;60387;49.994;14.660;2023-03-21T01:43:37;97740.16;;;12.92;49.01
71915;BME280;60387;49.994;14.660;2023-03-21T01:49:17;97734.72;;;12.92;49.01
71915;BME280;60387;49.994;14.660;2023-03-21T01:52:08;97727.19;;;12.89;48.66
71915;BME280;60387;49.994;14.660;2023-03-21T01:54:43;97726.72;;;12.87;48.97
71915;BME280;60387;49.994;14.660;2023-03-21T01:57:21;97724.00;;;12.87;48.77
71915;BME280;60387;49.994;14.660;2023-03-21T01:59:58;97730.53;;;12.86;48.45
71915;BME280;60387;49.994;14.660;2023-03-21T02:02:33;97729.72;;;12.86;49.51
71915;BME280;60387;49.994;14.660;2023-03-21T02:05:06;97731.66;;;12.85;48.64
71915;BME280;60387;49.994;14.660;2023-03-21T02:07:41;97727.00;;;12.86;48.84
71915;BME280;60387;49.994;14.660;2023-03-21T02:10:15;97725.09;;;12.86;48.87
71915;BME280;60387;49.994;14.660;2023-03-21T02:12:49;97732.16;;;12.87;48.79
71915;BME280;60387;49.994;14.660;2023-03-21T02:15:23;97727.00;;;12.86;49.26
71915;BME280;60387;49.994;14.660;2023-03-21T02:18:08;97730.84;;;12.85;48.86
71915;BME280;60387;49.994;14.660;2023-03-21T02:27:14;97721.09;;;12.76;48.78
71915;BME280;60387;49.994;14.660;2023-03-21T02:36:22;97721.50;;;12.61;48.57
71915;BME280;60387;49.994;14.660;2023-03-21T02:38:36;97719.56;;;12.53;48.49
71915;BME280;60387;49.994;14.660;2023-03-21T02:41:47;97727.22;;;12.51;48.92
71915;BME280;60387;49.994;14.660;2023-03-21T02:47:56;97716.94;;;12.39;48.95
71915;BME280;60387;49.994;14.660;2023-03-21T02:53:08;97717.88;;;12.35;48.56
71915;BME280;60387;49.994;14.660;2023-03-21T02:55:44;97725.38;;;12.38;49.77
71915;BME280;60387;49.994;14.660;2023-03-21T02:58:20;97724.41;;;12.34;49.20
71915;BME280;60387;49.994;14.660;2023-03-21T03:00:55;97713.38;;;12.30;49.16
71915;BME280;60387;49.994;14.660;2023-03-21T03:03:28;97724.25;;;12.30;49.11
71915;BME280;60387;49.994;14.660;2023-03-21T03:06:07;97711.44;;;12.31;49.00
71915;BME280;60387;49.994;14.660;2023-03-21T03:11:38;97724.25;;;12.30;48.85
71915;BME280;60387;49.994;14.660;2023-03-21T03:14:21;97720.72;;;12.30;49.33
71915;BME280;60387;49.994;14.660;2023-03-21T03:23:08;97717.28;;;12.16;49.13
71915;BME280;60387;49.994;14.660;2023-03-21T03:28:32;97714.97;;;12.01;51.31
71915;BME280;60387;49.994;14.660;2023-03-21T03:31:10;97716.19;;;11.95;50.17
71915;BME280;60387;49.994;14.660;2023-03-21T03:33:45;97721.13;;;11.93;50.12
71915;BME280;60387;49.994;14.660;2023-03-21T03:36:23;97724.47;;;11.90;50.14
71915;BME280;60387;49.994;14.660;2023-03-21T03:39:00;97707.19;;;11.86;49.98
71915;BME280;60387;49.994;14.660;2023-03-21T03:41:58;97716.94;;;11.87;50.22
71915;BME280;60387;49.994;14.660;2023-03-21T03:44:34;97711.84;;;11.85;49.55
71915;BME280;60387;49.994;14.660;2023-03-21T03:47:16;97719.16;;;11.85;49.77
71915;BME280;60387;49.994;14.660;2023-03-21T03:50:10;97708.13;;;11.81;49.80
71915;BME280;60387;49.994;14.660;2023-03-21T03:52:50;97711.47;;;11.78;49.25
71915;BME280;60387;49.994;14.660;2023-03-21T03:55:25;97720.66;;;11.69;49.39
71915;BME280;60387;49.994;14.660;2023-03-21T03:58:00;97710.72;;;11.64;49.19
71915;BME280;60387;49.994;14.660;2023-03-21T04:00:34;97709.53;;;11.57;49.18
71915;BME280;60387;49.994;14.660;2023-03-21T04:03:07;97708.03;;;11.51;49.80
71915;BME280;60387;49.994;14.660;2023-03-21T04:05:40;97712.47;;;11.47;50.33
71915;BME280;60387;49.994;14.660;2023-03-21T04:08:15;97719.13;;;11.41;49.94
71915;BME280;60387;49.994;14.660;2023-03-21T04:10:48;97707.09;;;11.33;50.19
71915;BME280;60387;49.994;14.660;2023-03-21T04:13:22;97710.22;;;11.27;49.63
71915;BME280;60387;49.994;14.660;2023-03-21T04:15:55;97718.34;;;11.27;50.07
71915;BME280;60387;49.994;14.660;2023-03-21T04:18:29;97720.56;;;11.25;50.06
71915;BME280;60387;49.994;14.660;2023-03-21T04:21:09;97708.22;;;11.19;49.98
71915;BME280;60387;49.994;14.660;2023-03-21T04:23:43;97708.22;;;11.19;50.24
71915;BME280;60387;49.994;14.660;2023-03-21T04:26:16;97712.66;;;11.15;54.06
71915;BME280;60387;49.994;14.660;2023-03-21T04:28:50;97726.81;;;11.12;51.97
71915;BME280;60387;49.994;14.660;2023-03-21T04:31:23;97712.88;;;11.05;51.01
71915;BME280;60387;49.994;14.660;2023-03-21T04:33:57;97724.50;;;11.05;50.83
71915;BME280;60387;49.994;14.660;2023-03-21T04:36:30;97716.19;;;11.02;50.54
71915;BME280;60387;49.994;14.660;2023-03-21T04:39:05;97707.38;;;10.96;50.87
71915;BME280;60387;49.994;14.660;2023-03-21T04:41:42;97716.50;;;11.00;51.83
71915;BME280;60387;49.994;14.660;2023-03-21T04:44:17;97720.63;;;10.98;50.57
71915;BME280;60387;49.994;14.660;2023-03-21T04:46:50;97725.22;;;10.97;51.00
71915;BME280;60387;49.994;14.660;2023-03-21T04:49:23;97717.41;;;10.96;50.55
71915;BME280;60387;49.994;14.660;2023-03-21T04:51:57;97722.84;;;10.96;50.46
71915;BME280;60387;49.994;14.660;2023-03-21T04:54:30;97722.22;;;10.99;51.62
71915;BME280;60387;49.994;14.660;2023-03-21T04:57:04;97726.03;;;10.98;51.33
71915;BME280;60387;49.994;14.660;2023-03-21T04:59:37;97715.19;;;10.98;51.50
71915;BME280;60387;49.994;14.660;2023-03-21T05:02:11;97722.50;;;10.97;51.09
71915;BME280;60387;49.994;14.660;2023-03-21T05:04:44;97722.22;;;10.99;50.57
71915;BME280;60387;49.994;14.660;2023-03-21T05:07:17;97716.81;;;10.99;50.79
71915;BME280;60387;49.994;14.660;2023-03-21T05:09:51;97715.41;;;11.01;50.78
71915;BME280;60387;49.994;14.660;2023-03-21T05:12:24;97716.19;;;11.02;50.87
71915;BME280;60387;49.994;14.660;2023-03-21T05:14:58;97724.72;;;11.09;50.68
71915;BME280;60387;49.994;14.660;2023-03-21T05:17:31;97723.59;;;11.10;50.76
71915;BME280;60387;49.994;14.660;2023-03-21T05:20:05;97716.97;;;11.16;50.60
71915;BME280;60387;49.994;14.660;2023-03-21T05:22:38;97717.16;;;11.19;50.90
71915;BME280;60387;49.994;14.660;2023-03-21T05:25:11;97716.75;;;11.26;50.92
71915;BME280;60387;49.994;14.660;2023-03-21T05:27:45;97720.94;;;11.32;51.65
71915;BME280;60387;49.994;14.660;2023-03-21T05:30:19;97724.34;;;11.37;52.05
71915;BME280;60387;49.994;14.660;2023-03-21T05:32:52;97718.00;;;11.42;52.11
71915;BME280;60387;49.994;14.660;2023-03-21T05:35:26;97714.06;;;11.48;51.61
71915;BME280;60387;49.994;14.660;2023-03-21T05:37:59;97722.59;;;11.55;51.42
71915;BME280;60387;49.994;14.660;2023-03-21T05:40:32;97726.03;;;11.60;52.05
71915;BME280;60387;49.994;14.660;2023-03-21T05:43:06;97719.34;;;11.66;51.73
71915;BME280;60387;49.994;14.660;2023-03-21T05:45:39;97730.91;;;11.72;52.03
71915;BME280;60387;49.994;14.660;2023-03-21T05:48:12;97722.63;;;11.77;52.15
71915;BME280;60387;49.994;14.660;2023-03-21T05:50:46;97724.41;;;11.81;52.30
71915;BME280;60387;49.994;14.660;2023-03-21T05:53:19;97723.97;;;11.88;52.18
71915;BME280;60387;49.994;14.660;2023-03-21T05:55:52;97731.38;;;11.96;52.81
71915;BME280;60387;49.994;14.660;2023-03-21T05:58:26;97732.84;;;12.02;52.45
71915;BME280;60387;49.994;14.660;2023-03-21T06:00:59;97725.72;;;12.06;52.83
71915;BME280;60387;49.994;14.660;2023-03-21T06:03:32;97724.16;;;12.13;52.33
71915;BME280;60387;49.994;14.660;2023-03-21T06:06:06;97724.81;;;12.19;52.15
71915;BME280;60387;49.994;14.660;2023-03-21T06:08:39;97719.75;;;12.26;51.92
71915;BME280;60387;49.994;14.660;2023-03-21T06:11:22;97725.53;;;12.33;51.59
71915;BME280;60387;49.994;14.660;2023-03-21T06:13:56;97730.34;;;12.36;52.04
71915;BME280;60387;49.994;14.660;2023-03-21T06:16:29;97729.22;;;12.37;51.74
71915;BME280;60387;49.994;14.660;2023-03-21T06:19:03;97733.22;;;12.39;52.07
71915;BME280;60387;49.994;14.660;2023-03-21T06:21:36;97732.28;;;12.44;51.76
71915;BME280;60387;49.994;14.660;2023-03-21T06:24:10;97740.53;;;12.61;52.61
71915;BME280;60387;49.994;14.660;2023-03-21T06:26:43;97737.69;;;12.74;52.16
71915;BME280;60387;49.994;14.660;2023-03-21T06:29:17;97736.94;;;12.90;52.11
71915;BME280;60387;49.994;14.660;2023-03-21T06:31:50;97745.50;;;13.06;52.54
71915;BME280;60387;49.994;14.660;2023-03-21T06:34:24;97747.63;;;13.17;51.29
71915;BME280;60387;49.994;14.660;2023-03-21T06:36:57;97740.94;;;13.32;51.09
71915;BME280;60387;49.994;14.660;2023-03-21T06:39:30;97743.19;;;13.47;51.38
71915;BME280;60387;49.994;14.660;2023-03-21T06:42:04;97738.72;;;13.59;50.92
71915;BME280;60387;49.994;14.660;2023-03-21T06:44:37;97747.50;;;13.73;51.22
71915;BME280;60387;49.994;14.660;2023-03-21T06:47:10;97747.03;;;13.88;50.72
71915;BME280;60387;49.994;14.660;2023-03-21T06:49:44;97761.59;;;14.01;50.66
71915;BME280;60387;49.994;14.660;2023-03-21T06:52:17;97749.25;;;14.12;50.31
71915;BME280;60387;49.994;14.660;2023-03-21T06:54:50;97759.03;;;14.21;50.59
71915;BME280;60387;49.994;14.660;2023-03-21T06:57:23;97756.13;;;14.26;50.20
71915;BME280;60387;49.994;14.660;2023-03-21T06:59:57;97774.41;;;14.34;50.37
71915;BME280;60387;49.994;14.660;2023-03-21T07:02:30;97770.06;;;14.33;50.28
71915;BME280;60387;49.994;14.660;2023-03-21T07:05:04;97772.16;;;14.36;50.41
71915;BME280;60387;49.994;14.660;2023-03-21T07:07:38;97765.25;;;14.39;50.44
71915;BME280;60387;49.994;14.660;2023-03-21T07:10:11;97766.53;;;14.41;50.04
71915;BME280;60387;49.994;14.660;2023-03-21T07:12:44;97767.47;;;14.54;50.06
71915;BME280;60387;49.994;14.660;2023-03-21T07:15:18;97759.91;;;14.59;49.45
71915;BME280;60387;49.994;14.660;2023-03-21T07:17:51;97756.97;;;14.73;49.44
71915;BME280;60387;49.994;14.660;2023-03-21T07:20:25;97755.66;;;14.79;49.33
71915;BME280;60387;49.994;14.660;2023-03-21T07:22:58;97760.28;;;14.87;48.59
71915;BME280;60387;49.994;14.660;2023-03-21T07:25:32;97765.69;;;14.95;48.53
71915;BME280;60387;49.994;14.660;2023-03-21T07:28:05;97765.34;;;15.05;48.77
71915;BME280;60387;49.994;14.660;2023-03-21T07:30:38;97762.84;;;15.21;48.65
71915;BME280;60387;49.994;14.660;2023-03-21T07:33:12;97763.75;;;15.33;48.01
71915;BME280;60387;49.994;14.660;2023-03-21T07:35:45;97762.25;;;15.44;47.97
71915;BME280;60387;49.994;14.660;2023-03-21T07:38:19;97769.03;;;15.59;47.37
71915;BME280;60387;49.994;14.660;2023-03-21T07:40:52;97773.47;;;15.72;47.65
71915;BME280;60387;49.994;14.660;2023-03-21T07:43:26;97775.94;;;15.85;47.13
71915;BME280;60387;49.994;14.660;2023-03-21T07:45:59;97780.66;;;15.97;47.10
71915;BME280;60387;49.994;14.660;2023-03-21T07:48:33;97778.97;;;16.04;46.83
71915;BME280;60387;49.994;14.660;2023-03-21T07:51:06;97778.47;;;16.11;46.37
71915;BME280;60387;49.994;14.660;2023-03-21T07:53:40;97777.44;;;16.15;46.66
71915;BME280;60387;49.994;14.660;2023-03-21T07:56:13;97776.53;;;16.23;46.70
71915;BME280;60387;49.994;14.660;2023-03-21T07:58:46;97765.47;;;16.40;46.44
71915;BME280;60387;49.994;14.660;2023-03-21T08:01:20;97776.03;;;16.62;46.47
71915;BME280;60387;49.994;14.660;2023-03-21T08:03:53;97762.59;;;16.81;46.33
71915;BME280;60387;49.994;14.660;2023-03-21T08:06:27;97762.63;;;17.05;46.22
71915;BME280;60387;49.994;14.660;2023-03-21T08:09:00;97759.91;;;17.29;46.33
71915;BME280;60387;49.994;14.660;2023-03-21T08:11:34;97765.84;;;17.55;45.68
71915;BME280;60387;49.994;14.660;2023-03-21T08:14:07;97752.09;;;17.67;45.72
71915;BME280;60387;49.994;14.660;2023-03-21T08:16:40;97762.09;;;17.99;45.45
71915;BME280;60387;49.994;14.660;2023-03-21T08:19:13;97766.84;;;18.14;44.67
71915;BME280;60387;49.994;14.660;2023-03-21T08:21:48;97778.09;;;18.24;43.97
71915;BME280;60387;49.994;14.660;2023-03-21T08:24:21;97769.66;;;18.29;44.23
71915;BME280;60387;49.994;14.660;2023-03-21T08:26:54;97779.31;;;18.39;43.96
71915;BME280;60387;49.994;14.660;2023-03-21T08:29:27;97778.47;;;18.50;43.85
71915;BME280;60387;49.994;14.660;2023-03-21T08:32:01;97769.81;;;18.64;42.83
71915;BME280;60387;49.994;14.660;2023-03-21T08:34:34;97781.44;;;18.73;43.30
71915;BME280;60387;49.994;14.660;2023-03-21T08:37:07;97778.97;;;18.83;42.88
71915;BME280;60387;49.994;14.660;2023-03-21T08:39:41;97772.16;;;18.93;42.52
71915;BME280;60387;49.994;14.660;2023-03-21T08:42:14;97773.94;;;19.01;42.15
71915;BME280;60387;49.994;14.660;2023-03-21T08:44:48;97777.47;;;19.17;42.78
71915;BME280;60387;49.994;14.660;2023-03-21T08:47:21;97777.84;;;19.31;40.47
71915;BME280;60387;49.994;14.660;2023-03-21T08:49:56;97771.72;;;19.37;41.14
71915;BME280;60387;49.994;14.660;2023-03-21T08:52:29;97775.09;;;19.46;40.19
71915;BME280;60387;49.994;14.660;2023-03-21T08:55:03;97776.94;;;19.58;41.08
71915;BME280;60387;49.994;14.660;2023-03-21T08:57:36;97773.47;;;19.79;41.44
71915;BME280;60387;49.994;14.660;2023-03-21T09:00:13;97774.56;;;20.09;41.74
71915;BME280;60387;49.994;14.660;2023-03-21T09:02:48;97781.66;;;20.48;41.16
71915;BME280;60387;49.994;14.660;2023-03-21T09:05:22;97762.69;;;20.85;40.66
71915;BME280;60387;49.994;14.660;2023-03-21T09:07:55;97764.75;;;21.10;40.58
71915;BME280;60387;49.994;14.660;2023-03-21T09:10:28;97765.44;;;21.30;37.90
71915;BME280;60387;49.994;14.660;2023-03-21T09:13:02;97762.44;;;21.38;35.53
71915;BME280;60387;49.994;14.660;2023-03-21T09:15:35;97759.47;;;21.50;37.67
71915;BME280;60387;49.994;14.660;2023-03-21T09:18:08;97764.72;;;21.81;38.28
71915;BME280;60387;49.994;14.660;2023-03-21T09:20:43;97769.00;;;22.08;35.70
71915;BME280;60387;49.994;14.660;2023-03-21T09:23:16;97769.25;;;22.26;36.18
71915;BME280;60387;49.994;14.660;2023-03-21T09:25:49;97776.59;;;22.44;35.79
71915;BME280;60387;49.994;14.660;2023-03-21T09:28:23;97765.38;;;22.63;37.03
71915;BME280;60387;49.994;14.660;2023-03-21T09:30:57;97756.53;;;22.84;35.82
71915;BME280;60387;49.994;14.660;2023-03-21T09:33:31;97761.56;;;23.15;36.25
71915;BME280;60387;49.994;14.660;2023-03-21T09:36:05;97757.94;;;23.54;36.72
71915;BME280;60387;49.994;14.660;2023-03-21T09:38:40;97768.81;;;23.83;35.96
71915;BME280;60387;49.994;14.660;2023-03-21T09:49:34;97769.13;;;24.36;34.09
71915;BME280;60387;49.994;14.660;2023-03-21T09:52:20;97763.28;;;24.55;34.41
71915;BME280;60387;49.994;14.660;2023-03-21T09:54:55;97767.28;;;24.61;33.31
71915;BME280;60387;49.994;14.660;2023-03-21T09:57:32;97763.31;;;24.62;33.93
71915;BME280;60387;49.994;14.660;2023-03-21T10:00:11;97774.81;;;24.74;33.94
71915;BME280;60387;49.994;14.660;2023-03-21T10:02:48;97765.75;;;24.91;32.53
71915;BME280;60387;49.994;14.660;2023-03-21T10:05:23;97759.03;;;24.89;33.43
71915;BME280;60387;49.994;14.660;2023-03-21T10:08:10;97766.91;;;24.76;31.67
71915;BME280;60387;49.994;14.660;2023-03-21T10:10:49;97755.31;;;24.53;32.90
71915;BME280;60387;49.994;14.660;2023-03-21T10:13:27;97759.28;;;24.42;32.73
71915;BME280;60387;49.994;14.660;2023-03-21T10:16:12;97756.88;;;24.37;33.61
71915;BME280;60387;49.994;14.660;2023-03-21T10:18:46;97750.53;;;24.36;33.48
71915;BME280;60387;49.994;14.660;2023-03-21T10:21:23;97749.78;;;24.46;33.66
71915;BME280;60387;49.994;14.660;2023-03-21T10:23:57;97748.25;;;24.56;32.77
71915;BME280;60387;49.994;14.660;2023-03-21T10:26:31;97751.88;;;24.67;32.92
71915;BME280;60387;49.994;14.660;2023-03-21T10:29:05;97750.69;;;24.78;32.86
71915;BME280;60387;49.994;14.660;2023-03-21T10:31:41;97737.25;;;24.84;31.05
71915;BME280;60387;49.994;14.660;2023-03-21T10:36:49;97734.47;;;24.80;31.78
71915;BME280;60387;49.994;14.660;2023-03-21T10:39:36;97729.34;;;24.86;32.15
71915;BME280;60387;49.994;14.660;2023-03-21T10:42:20;97732.91;;;25.04;32.49
71915;BME280;60387;49.994;14.660;2023-03-21T10:44:55;97727.41;;;25.25;31.11
71915;BME280;60387;49.994;14.660;2023-03-21T10:47:31;97728.59;;;25.38;30.30
71915;BME280;60387;49.994;14.660;2023-03-21T10:50:07;97726.19;;;25.47;31.18
71915;BME280;60387;49.994;14.660;2023-03-21T10:52:55;97724.19;;;25.58;31.43
71915;BME280;60387;49.994;14.660;2023-03-21T10:55:30;97728.53;;;25.76;29.74
71915;BME280;60387;49.994;14.660;2023-03-21T10:58:07;97713.03;;;25.86;29.87
71915;BME280;60387;49.994;14.660;2023-03-21T11:00:42;97722.94;;;25.94;28.77
71915;BME280;60387;49.994;14.660;2023-03-21T11:03:22;97728.94;;;25.89;30.37
71915;BME280;60387;49.994;14.660;2023-03-21T11:06:22;97720.97;;;25.84;29.85
71915;BME280;60387;49.994;14.660;2023-03-21T11:09:05;97719.03;;;25.91;30.27
71915;BME280;60387;49.994;14.660;2023-03-21T11:14:32;97714.13;;;26.27;30.01
71915;BME280;60387;49.994;14.660;2023-03-21T11:17:27;97711.41;;;26.16;27.96
71915;BME280;60387;49.994;14.660;2023-03-21T11:20:05;97701.19;;;25.89;29.58
71915;BME280;60387;49.994;14.660;2023-03-21T11:22:41;97707.53;;;25.75;30.25
71915;BME280;60387;49.994;14.660;2023-03-21T11:25:26;97707.53;;;25.79;29.02
71915;BME280;60387;49.994;14.660;2023-03-21T11:28:08;97697.63;;;25.74;28.57
71915;BME280;60387;49.994;14.660;2023-03-21T11:30:55;97702.34;;;25.81;30.21
71915;BME280;60387;49.994;14.660;2023-03-21T11:33:45;97694.81;;;25.95;28.70
71915;BME280;60387;49.994;14.660;2023-03-21T11:41:46;97690.44;;;26.01;29.29
71915;BME280;60387;49.994;14.660;2023-03-21T11:44:29;97690.81;;;25.86;29.79
71915;BME280;60387;49.994;14.660;2023-03-21T11:47:02;97682.13;;;25.91;29.89
71915;BME280;60387;49.994;14.660;2023-03-21T11:49:36;97678.13;;;26.06;30.42
71915;BME280;60387;49.994;14.660;2023-03-21T12:00:23;97671.09;;;25.56;30.34
71915;BME280;60387;49.994;14.660;2023-03-21T12:03:46;97651.75;;;25.31;29.40
71915;BME280;60387;49.994;14.660;2023-03-21T12:06:31;97661.22;;;25.37;30.24
71915;BME280;60387;49.994;14.660;2023-03-21T12:09:22;97649.28;;;25.58;30.72
71915;BME280;60387;49.994;14.660;2023-03-21T12:15:53;97635.72;;;25.95;29.08
71915;BME280;60387;49.994;14.660;2023-03-21T12:24:53;97636.38;;;26.20;28.06
71915;BME280;60387;49.994;14.660;2023-03-21T12:30:09;97631.91;;;26.40;27.58
71915;BME280;60387;49.994;14.660;2023-03-21T12:38:39;97616.97;;;26.78;27.93
71915;BME280;60387;49.994;14.660;2023-03-21T12:41:21;97617.63;;;26.92;28.39
71915;BME280;60387;49.994;14.660;2023-03-21T12:52:33;97612.38;;;27.05;27.19
71915;BME280;60387;49.994;14.660;2023-03-21T12:55:33;97608.00;;;27.04;28.39
71915;BME280;60387;49.994;14.660;2023-03-21T12:58:15;97604.75;;;27.16;28.23
71915;BME280;60387;49.994;14.660;2023-03-21T13:00:56;97591.97;;;27.22;26.41
71915;BME280;60387;49.994;14.660;2023-03-21T13:03:36;97592.19;;;26.97;26.62
71915;BME280;60387;49.994;14.660;2023-03-21T13:06:15;97585.34;;;26.61;28.00
71915;BME280;60387;49.994;14.660;2023-03-21T13:09:14;97579.91;;;26.40;28.40
71915;BME280;60387;49.994;14.660;2023-03-21T13:11:50;97580.78;;;26.27;28.96
71915;BME280;60387;49.994;14.660;2023-03-21T13:14:29;97578.88;;;26.13;28.48
71915;BME280;60387;49.994;14.660;2023-03-21T13:17:26;97569.41;;;26.07;29.08
71915;BME280;60387;49.994;14.660;2023-03-21T13:20:11;97563.03;;;26.14;29.39
71915;BME280;60387;49.994;14.660;2023-03-21T13:22:48;97559.34;;;26.31;28.73
71915;BME280;60387;49.994;14.660;2023-03-21T13:25:23;97560.00;;;26.52;29.06
71915;BME280;60387;49.994;14.660;2023-03-21T13:28:03;97554.28;;;26.70;28.76
71915;BME280;60387;49.994;14.660;2023-03-21T13:30:37;97557.38;;;26.79;27.87
71915;BME280;60387;49.994;14.660;2023-03-21T13:33:15;97553.00;;;26.81;27.43
71915;BME280;60387;49.994;14.660;2023-03-21T13:36:03;97550.22;;;26.81;27.89
71915;BME280;60387;49.994;14.660;2023-03-21T13:38:37;97543.19;;;26.70;27.40
71915;BME280;60387;49.994;14.660;2023-03-21T13:41:20;97527.91;;;26.41;27.82
71915;BME280;60387;49.994;14.660;2023-03-21T13:46:52;97537.28;;;26.03;28.50
71915;BME280;60387;49.994;14.660;2023-03-21T13:49:29;97535.34;;;26.00;28.42
71915;BME280;60387;49.994;14.660;2023-03-21T13:54:52;97538.94;;;25.97;28.34
71915;BME280;60387;49.994;14.660;2023-03-21T14:00:26;97531.03;;;25.85;29.00
71915;BME280;60387;49.994;14.660;2023-03-21T14:03:05;97534.28;;;25.69;28.67
71915;BME280;60387;49.994;14.660;2023-03-21T14:05:40;97526.47;;;25.50;28.20
71915;BME280;60387;49.994;14.660;2023-03-21T14:08:16;97526.13;;;25.31;28.73
71915;BME280;60387;49.994;14.660;2023-03-21T14:10:53;97524.16;;;25.17;28.87
71915;BME280;60387;49.994;14.660;2023-03-21T14:13:27;97528.16;;;25.06;29.24
71915;BME280;60387;49.994;14.660;2023-03-21T14:16:09;97521.06;;;24.98;29.54
71915;BME280;60387;49.994;14.660;2023-03-21T14:18:52;97521.06;;;24.98;29.99
71915;BME280;60387;49.994;14.660;2023-03-21T14:21:29;97517.44;;;25.08;28.87
71915;BME280;60387;49.994;14.660;2023-03-21T14:24:10;97511.91;;;25.08;29.37
71915;BME280;60387;49.994;14.660;2023-03-21T14:26:50;97515.09;;;25.10;28.99
71915;BME280;60387;49.994;14.660;2023-03-21T14:29:33;97508.00;;;24.88;29.25
71915;BME280;60387;49.994;14.660;2023-03-21T14:32:18;97510.03;;;24.66;29.17
71915;BME280;60387;49.994;14.660;2023-03-21T14:34:58;97506.06;;;24.43;29.17
71915;BME280;60387;49.994;14.660;2023-03-21T14:37:37;97505.28;;;24.21;28.96
71915;BME280;60387;49.994;14.660;2023-03-21T14:40:23;97506.81;;;24.05;29.78
71915;BME280;60387;49.994;14.660;2023-03-21T14:43:03;97503.28;;;24.04;30.19
71915;BME280;60387;49.994;14.660;2023-03-21T14:45:38;97495.34;;;23.99;30.07
71915;BME280;60387;49.994;14.660;2023-03-21T14:48:13;97494.13;;;23.90;30.01
71915;BME280;60387;49.994;14.660;2023-03-21T14:50:52;97484.59;;;23.73;30.87
71915;BME280;60387;49.994;14.660;2023-03-21T14:53:32;97498.00;;;23.57;30.43
71915;BME280;60387;49.994;14.660;2023-03-21T14:56:22;97499.84;;;23.22;31.12
71915;BME280;60387;49.994;14.660;2023-03-21T14:58:56;97490.19;;;22.88;31.43
71915;BME280;60387;49.994;14.660;2023-03-21T15:01:31;97494.41;;;22.72;31.72
71915;BME280;60387;49.994;14.660;2023-03-21T15:04:05;97491.72;;;22.32;31.92
71915;BME280;60387;49.994;14.660;2023-03-21T15:06:54;97486.94;;;22.25;32.02
71915;BME280;60387;49.994;14.660;2023-03-21T15:09:29;97493.91;;;22.09;32.51
71915;BME280;60387;49.994;14.660;2023-03-21T15:12:07;97490.28;;;22.01;32.76
71915;BME280;60387;49.994;14.660;2023-03-21T15:14:40;97484.34;;;21.99;32.32